Time;durP1;ratioP1;P1;durP2;ratioP2;P2;SDS_P1;SDS_P2;PMS_P1;PMS_P2;Temp;Humidity;BMP_temperature;BMP_pressure;BME280_temperature;BME280_humidity;BME280_pressure;Samples;Min_cycle;Max_cycle;Signal;HPM_P1;HPM_P2
2022/08/11 00:00:48;;;;;;;;;;;26.20;80.30;;;;;;5059901;28;19925;-63
2022/08/11 00:03:14;;;;;;;;;;;26.20;80.50;;;;;;5053847;28;19925;-61
2022/08/11 00:05:58;;;;;;;;;;;26.40;80.50;;;;;;5035976;28;19921;-62
2022/08/11 00:08:27;;;;;;;;;;;26.10;79.20;;;;;;5058084;28;20008;-62
2022/08/11 00:10:54;;;;;;;;;;;26.30;79.40;;;;;;5052938;28;20272;-61
2022/08/11 00:13:20;;;;;;;;;;;26.20;80.70;;;;;;5054576;28;19925;-62
2022/08/11 00:15:45;;;;;;;;;;;26.00;80.40;;;;;;5057375;28;20282;-62
2022/08/11 00:18:11;;;;;;;;;;;26.40;80.80;;;;;;5047107;28;19932;-62
2022/08/11 00:20:40;;;;;;;;;;;26.10;80.50;;;;;;5036084;28;19978;-62
2022/08/11 00:23:15;;;;;;;;;;;26.10;79.40;;;;;;5053914;28;19931;-61
2022/08/11 00:25:53;;;;;;;;;;;26.20;80.90;;;;;;5036115;28;19948;-61
2022/08/11 00:28:22;;;;;;;;;;;26.10;80.80;;;;;;5032723;28;19932;-62
2022/08/11 00:30:48;;;;;;;;;;;26.20;79.40;;;;;;5074105;28;19925;-61
2022/08/11 00:33:14;;;;;;;;;;;26.30;80.90;;;;;;5053700;28;19932;-62
2022/08/11 00:35:39;;;;;;;;;;;26.40;80.70;;;;;;5052526;28;20014;-61
2022/08/11 00:38:05;;;;;;;;;;;26.10;80.60;;;;;;5052965;28;19925;-61
2022/08/11 00:40:44;;;;;;;;;;;26.10;80.60;;;;;;5057947;28;19947;-61
2022/08/11 00:43:21;;;;;;;;;;;26.00;79.20;;;;;;5036056;28;19925;-61
2022/08/11 00:45:54;;;;;;;;;;;26.40;80.30;;;;;;5042062;28;19979;-62
2022/08/11 00:48:35;;;;;;;;;;;26.00;80.60;;;;;;5056087;28;20023;-61
2022/08/11 00:51:20;;;;;;;;;;;26.20;79.50;;;;;;5064091;28;19925;-62
2022/08/11 00:53:54;;;;;;;;;;;26.20;79.50;;;;;;5068416;28;19924;-62
2022/08/11 00:56:26;;;;;;;;;;;26.20;79.50;;;;;;5076345;28;19975;-61
2022/08/11 00:58:55;;;;;;;;;;;26.20;79.50;;;;;;5076017;28;19951;-62
2022/08/11 01:01:26;;;;;;;;;;;26.20;79.50;;;;;;5064891;28;19932;-62
2022/08/11 01:04:10;;;;;;;;;;;26.10;80.80;;;;;;5064440;28;19935;-62
2022/08/11 01:06:54;;;;;;;;;;;26.00;79.40;;;;;;5056036;28;19932;-62
2022/08/11 01:09:19;;;;;;;;;;;25.80;79.20;;;;;;5074038;28;19924;-62
2022/08/11 01:12:24;;;;;;;;;;;26.20;80.80;;;;;;5070278;28;19986;-62
2022/08/11 01:14:50;;;;;;;;;;;26.00;79.40;;;;;;5013981;28;19926;-62
2022/08/11 01:17:28;;;;;;;;;;;26.30;80.90;;;;;;5014201;28;20008;-62
2022/08/11 01:20:08;;;;;;;;;;;26.30;79.70;;;;;;5013997;28;19926;-62
2022/08/11 01:22:46;;;;;;;;;;;25.80;79.40;;;;;;5013230;28;20037;-62
2022/08/11 01:25:30;;;;;;;;;;;25.90;79.50;;;;;;5013409;28;20461;-61
2022/08/11 01:27:59;;;;;;;;;;;26.00;79.50;;;;;;5012433;28;19925;-62
2022/08/11 01:30:25;;;;;;;;;;;26.10;79.70;;;;;;5013935;28;20025;-62
2022/08/11 01:33:08;;;;;;;;;;;26.10;80.90;;;;;;5013295;28;19925;-63
2022/08/11 01:35:46;;;;;;;;;;;26.00;79.50;;;;;;5013902;28;19932;-62
2022/08/11 01:38:19;;;;;;;;;;;25.90;79.40;;;;;;5013364;28;19929;-61
2022/08/11 01:40:45;;;;;;;;;;;26.10;81.00;;;;;;5013113;28;20326;-61
2022/08/11 01:46:13;;;;;;;;;;;26.20;79.60;;;;;;5053717;28;19925;-62
2022/08/11 01:48:43;;;;;;;;;;;26.40;81.20;;;;;;5075506;28;19925;-67
2022/08/11 01:51:32;;;;;;;;;;;26.00;79.50;;;;;;5075297;28;19931;-62
2022/08/11 01:54:00;;;;;;;;;;;26.00;79.50;;;;;;5031698;28;19925;-62
2022/08/11 01:56:34;;;;;;;;;;;26.30;81.10;;;;;;5032759;28;19924;-61
2022/08/11 01:59:00;;;;;;;;;;;26.10;79.60;;;;;;5032576;28;19925;-62
2022/08/11 02:01:44;;;;;;;;;;;26.10;80.80;;;;;;5033142;28;19929;-64
2022/08/11 02:04:16;;;;;;;;;;;25.90;79.50;;;;;;5031901;28;19994;-62
2022/08/11 02:07:01;;;;;;;;;;;26.20;79.80;;;;;;5033092;28;20389;-62
2022/08/11 02:09:45;;;;;;;;;;;26.00;79.60;;;;;;5032559;28;19925;-61
2022/08/11 02:12:15;;;;;;;;;;;25.80;79.50;;;;;;5033102;28;19925;-63
2022/08/11 02:15:13;;;;;;;;;;;25.90;80.30;;;;;;5047134;28;19967;-62
2022/08/11 02:17:57;;;;;;;;;;;26.20;79.80;;;;;;4955267;28;20010;-63
2022/08/11 02:26:17;;;;;;;;;;;26.10;79.90;;;;;;4953793;29;20277;-62
2022/08/11 02:29:01;;;;;;;;;;;25.70;79.60;;;;;;4954551;29;19927;-61
2022/08/11 02:34:20;;;;;;;;;;;26.10;80.00;;;;;;4993190;28;20081;-62
2022/08/11 02:36:58;;;;;;;;;;;25.90;81.10;;;;;;4989497;28;20038;-63
2022/08/11 02:39:27;;;;;;;;;;;26.10;81.40;;;;;;4991767;28;19925;-62
2022/08/11 02:42:24;;;;;;;;;;;26.10;81.40;;;;;;4961302;28;19930;-62
2022/08/11 02:45:01;;;;;;;;;;;26.00;80.00;;;;;;4954348;29;19938;-62
2022/08/11 02:49:52;;;;;;;;;;;26.00;79.90;;;;;;4953960;28;19927;-63
2022/08/11 02:50:34;;;;;;;;;;;25.90;79.90;;;;;;4969857;28;20368;-62
2022/08/11 02:53:15;;;;;;;;;;;26.10;81.50;;;;;;4994090;28;19931;-63
2022/08/11 02:55:56;;;;;;;;;;;26.10;80.00;;;;;;5053563;28;19932;-63
2022/08/11 02:58:40;;;;;;;;;;;26.00;80.00;;;;;;5056506;28;19936;-61
2022/08/11 03:01:12;;;;;;;;;;;25.90;80.00;;;;;;5054031;28;19925;-62
2022/08/11 03:03:46;;;;;;;;;;;25.80;80.00;;;;;;5054052;28;19925;-62
2022/08/11 03:06:18;;;;;;;;;;;25.80;79.90;;;;;;5053898;28;19928;-62
2022/08/11 03:08:55;;;;;;;;;;;26.00;81.50;;;;;;5049215;28;20414;-62
2022/08/11 03:17:14;;;;;;;;;;;26.00;80.50;;;;;;5053312;28;19926;-62
2022/08/11 03:19:50;;;;;;;;;;;25.80;81.40;;;;;;5049567;28;19925;-63
2022/08/11 03:22:37;;;;;;;;;;;25.70;80.00;;;;;;5050755;28;19932;-62
2022/08/11 03:25:11;;;;;;;;;;;25.80;80.10;;;;;;5055765;28;19924;-62
2022/08/11 03:27:43;;;;;;;;;;;25.70;80.00;;;;;;5049179;28;19925;-64
2022/08/11 03:30:10;;;;;;;;;;;25.80;80.10;;;;;;5059364;28;19932;-62
2022/08/11 03:34:00;;;;;;;;;;;25.80;81.50;;;;;;5069398;28;20275;-62
2022/08/11 03:35:39;;;;;;;;;;;25.90;80.20;;;;;;5047560;28;19932;-62
2022/08/11 03:38:06;;;;;;;;;;;25.80;80.00;;;;;;5049381;28;20071;-61
2022/08/11 03:43:47;;;;;;;;;;;25.70;79.90;;;;;;5073580;28;20382;-62
2022/08/11 03:46:19;;;;;;;;;;;25.90;80.10;;;;;;5067713;28;19931;-62
2022/08/11 03:48:47;;;;;;;;;;;25.90;80.00;;;;;;5049515;28;19925;-62
2022/08/11 03:51:24;;;;;;;;;;;25.90;80.10;;;;;;5062278;28;19931;-61
2022/08/11 03:54:08;;;;;;;;;;;26.10;80.20;;;;;;5068488;28;19975;-62
2022/08/11 03:56:53;;;;;;;;;;;25.80;80.00;;;;;;5063046;28;19975;-62
2022/08/11 03:59:22;;;;;;;;;;;25.80;80.00;;;;;;5073265;28;19979;-61
2022/08/11 04:02:06;;;;;;;;;;;25.90;80.10;;;;;;5051510;28;19975;-61
2022/08/11 04:04:50;;;;;;;;;;;26.00;80.10;;;;;;5065351;28;19924;-62
2022/08/11 04:07:16;;;;;;;;;;;25.70;80.00;;;;;;5059546;28;19931;-63
2022/08/11 04:09:45;;;;;;;;;;;26.10;81.10;;;;;;5053266;28;19921;-62
2022/08/11 04:12:10;;;;;;;;;;;25.60;81.30;;;;;;5053067;28;20023;-62
2022/08/11 04:17:45;;;;;;;;;;;26.00;80.30;;;;;;5057213;28;19925;-62
2022/08/11 04:20:30;;;;;;;;;;;25.70;80.10;;;;;;5073387;28;19928;-63
2022/08/11 04:23:02;;;;;;;;;;;25.90;80.30;;;;;;5072510;28;19931;-61
2022/08/11 04:25:35;;;;;;;;;;;26.10;80.40;;;;;;5072756;28;20391;-64
2022/08/11 04:28:34;;;;;;;;;;;25.50;79.90;;;;;;5066562;28;20013;-62
2022/08/11 04:31:02;;;;;;;;;;;25.60;80.10;;;;;;4998648;28;19925;-62
2022/08/11 04:33:40;;;;;;;;;;;25.70;80.20;;;;;;5012249;28;19926;-62
2022/08/11 04:37:30;;;;;;;;;;;25.70;80.10;;;;;;5014478;28;19926;-62
2022/08/11 04:39:13;;;;;;;;;;;25.60;80.00;;;;;;5014550;28;19926;-62
2022/08/11 04:44:41;;;;;;;;;;;25.70;80.00;;;;;;5014621;28;19930;-62
2022/08/11 05:01:39;;;;;;;;;;;26.00;81.30;;;;;;5014104;28;20372;-61
2022/08/11 05:01:40;;;;;;;;;;;26.10;79.20;;;;;;5014200;28;20311;-61
2022/08/11 05:07:03;;;;;;;;;;;25.80;78.60;;;;;;5040199;28;19947;-61
2022/08/11 05:09:44;;;;;;;;;;;25.90;78.80;;;;;;5055948;28;19931;-62
2022/08/11 05:12:29;;;;;;;;;;;25.90;78.60;;;;;;5056422;28;20367;-62
2022/08/11 05:27:09;;;;;;;;;;;26.10;78.60;;;;;;5055259;28;19975;-63
2022/08/11 05:34:53;;;;;;;;;;;26.20;78.70;;;;;;5075667;28;19986;-62
2022/08/11 05:37:22;;;;;;;;;;;26.40;78.50;;;;;;5052066;28;19925;-62
2022/08/11 05:56:19;;;;;;;;;;;26.70;76.30;;;;;;5050662;28;20016;-62
2022/08/11 05:58:51;;;;;;;;;;;26.80;77.20;;;;;;5052065;28;19983;-62
2022/08/11 06:01:20;;;;;;;;;;;27.10;76.10;;;;;;5035645;28;20410;-62
2022/08/11 06:06:32;;;;;;;;;;;27.20;77.60;;;;;;5052239;28;20287;-62
2022/08/11 06:08:58;;;;;;;;;;;27.10;76.80;;;;;;5050389;28;19936;-62
2022/08/11 06:11:23;;;;;;;;;;;27.40;76.90;;;;;;5053019;28;19932;-62
2022/08/11 06:13:49;;;;;;;;;;;27.10;76.80;;;;;;5050025;28;19925;-62
2022/08/11 06:16:18;;;;;;;;;;;27.40;76.90;;;;;;5055226;28;19943;-62
2022/08/11 06:18:44;;;;;;;;;;;27.20;76.80;;;;;;5066764;28;19936;-63
2022/08/11 06:21:10;;;;;;;;;;;27.40;76.80;;;;;;5071423;28;19924;-62
2022/08/11 06:23:36;;;;;;;;;;;27.20;76.10;;;;;;5074668;28;20325;-63
2022/08/11 06:26:07;;;;;;;;;;;27.60;76.70;;;;;;5074518;28;19932;-64
2022/08/11 06:28:35;;;;;;;;;;;27.60;76.60;;;;;;5069643;28;19928;-63
2022/08/11 06:31:02;;;;;;;;;;;27.80;76.50;;;;;;5058599;28;19928;-62
2022/08/11 06:33:42;;;;;;;;;;;27.60;76.30;;;;;;5074629;28;19968;-63
2022/08/11 06:36:09;;;;;;;;;;;27.50;76.30;;;;;;5053694;28;19972;-63
2022/08/11 06:38:37;;;;;;;;;;;27.60;76.20;;;;;;5054711;28;19932;-62
2022/08/11 06:44:09;;;;;;;;;;;27.80;76.40;;;;;;5043014;28;19925;-65
2022/08/11 06:46:38;;;;;;;;;;;27.70;74.70;;;;;;5027349;28;20432;-73
2022/08/11 06:51:10;;;;;;;;;;;27.90;76.10;;;;;;5037749;28;19936;-66
2022/08/11 06:52:03;;;;;;;;;;;27.90;74.70;;;;;;5047052;28;19925;-67
2022/08/11 06:54:32;;;;;;;;;;;28.00;74.80;;;;;;5036459;28;19935;-72
2022/08/11 07:02:32;;;;;;;;;;;28.10;75.60;;;;;;5054165;28;19925;-64
2022/08/11 07:05:06;;;;;;;;;;;28.40;75.70;;;;;;5033570;28;19925;-65
2022/08/11 07:16:18;;;;;;;;;;;28.10;75.10;;;;;;5054661;28;19948;-65
2022/08/11 07:29:45;;;;;;;;;;;28.50;73.50;;;;;;5052949;28;19997;-65
2022/08/11 07:32:29;;;;;;;;;;;28.60;74.20;;;;;;5051451;28;20019;-63
2022/08/11 07:35:01;;;;;;;;;;;28.60;72.70;;;;;;5048111;28;19936;-69
2022/08/11 07:37:28;;;;;;;;;;;28.70;72.70;;;;;;5071521;28;19970;-69
2022/08/11 07:39:54;;;;;;;;;;;28.90;74.00;;;;;;5071578;28;19991;-68
2022/08/11 07:42:21;;;;;;;;;;;28.90;73.70;;;;;;5071919;28;19975;-63
2022/08/11 07:53:04;;;;;;;;;;;29.00;72.10;;;;;;5072662;28;19931;-70
2022/08/11 07:55:33;;;;;;;;;;;28.90;71.70;;;;;;5062992;28;20816;-62
2022/08/11 08:20:06;;;;;;;;;;;29.40;71.70;;;;;;5076032;28;19925;-63
2022/08/11 08:22:32;;;;;;;;;;;29.70;71.20;;;;;;5053605;28;19982;-64
2022/08/11 08:24:57;;;;;;;;;;;29.60;71.40;;;;;;5055426;28;19925;-67
2022/08/11 08:27:24;;;;;;;;;;;29.60;71.50;;;;;;5056257;28;20409;-62
2022/08/11 08:32:37;;;;;;;;;;;29.50;70.30;;;;;;5069468;28;19948;-68
2022/08/11 08:35:02;;;;;;;;;;;29.80;71.80;;;;;;5065409;28;19924;-62
2022/08/11 08:37:28;;;;;;;;;;;29.60;71.30;;;;;;5056280;28;20293;-65
2022/08/11 08:39:54;;;;;;;;;;;29.60;70.70;;;;;;5036002;28;19924;-63
2022/08/11 08:42:21;;;;;;;;;;;29.70;71.30;;;;;;5075459;28;19938;-62
2022/08/11 08:44:49;;;;;;;;;;;29.70;71.40;;;;;;5075131;28;19932;-70
2022/08/11 08:47:15;;;;;;;;;;;29.50;71.30;;;;;;5043091;28;19931;-63
2022/08/11 08:49:48;;;;;;;;;;;29.80;71.20;;;;;;5050746;28;20020;-62
2022/08/11 08:52:15;;;;;;;;;;;29.90;69.80;;;;;;5039243;28;20015;-65
2022/08/11 08:54:42;;;;;;;;;;;29.80;70.20;;;;;;5075833;28;20094;-67
2022/08/11 08:57:08;;;;;;;;;;;29.60;70.90;;;;;;5055016;28;19928;-63
2022/08/11 08:59:35;;;;;;;;;;;29.40;70.30;;;;;;5052952;28;20267;-63
2022/08/11 09:02:01;;;;;;;;;;;29.70;70.60;;;;;;5054074;28;20008;-70
2022/08/11 09:04:27;;;;;;;;;;;29.70;70.60;;;;;;5047889;28;19924;-62
2022/08/11 09:06:53;;;;;;;;;;;29.50;70.20;;;;;;5082424;28;20007;-62
2022/08/11 09:09:21;;;;;;;;;;;29.80;70.30;;;;;;5078978;28;20377;-66
2022/08/11 09:11:52;;;;;;;;;;;29.80;68.80;;;;;;5073522;28;19952;-62
2022/08/11 09:17:21;;;;;;;;;;;29.70;68.80;;;;;;5052674;28;19925;-71
2022/08/11 09:19:57;;;;;;;;;;;29.80;70.20;;;;;;5041020;28;20256;-67
2022/08/11 09:27:55;;;;;;;;;;;30.00;69.70;;;;;;5055729;28;19968;-63
2022/08/11 09:30:21;;;;;;;;;;;29.80;70.30;;;;;;5049107;28;20027;-64
2022/08/11 09:32:46;;;;;;;;;;;29.70;70.40;;;;;;5017528;28;20365;-62
2022/08/11 09:35:12;;;;;;;;;;;29.90;70.10;;;;;;5064470;28;19930;-68
2022/08/11 09:40:28;;;;;;;;;;;29.70;69.40;;;;;;5057844;28;19932;-62
2022/08/11 09:45:49;;;;;;;;;;;29.80;69.60;;;;;;5046579;28;19925;-65
2022/08/11 09:48:16;;;;;;;;;;;29.80;69.60;;;;;;5068730;28;20020;-64
2022/08/11 09:50:42;;;;;;;;;;;29.80;71.00;;;;;;5044506;28;20008;-68
2022/08/11 09:53:08;;;;;;;;;;;29.90;71.00;;;;;;5026397;28;20051;-67
2022/08/11 09:55:34;;;;;;;;;;;29.80;71.10;;;;;;5042016;28;19936;-63
2022/08/11 09:58:12;;;;;;;;;;;29.90;71.20;;;;;;5070667;28;20394;-65
2022/08/11 10:00:39;;;;;;;;;;;29.80;70.10;;;;;;5054896;28;19924;-65
2022/08/11 10:03:11;;;;;;;;;;;29.90;71.30;;;;;;5042596;28;19988;-65
2022/08/11 10:08:21;;;;;;;;;;;29.60;70.60;;;;;;5051774;28;19978;-64
2022/08/11 10:10:47;;;;;;;;;;;29.80;72.20;;;;;;5034051;28;19960;-65
2022/08/11 10:13:17;;;;;;;;;;;29.80;71.20;;;;;;5037059;28;19972;-64
2022/08/11 10:15:44;;;;;;;;;;;29.60;71.40;;;;;;5020212;28;19971;-64
2022/08/11 10:21:05;;;;;;;;;;;29.80;71.40;;;;;;5055522;28;19971;-62
2022/08/11 10:29:01;;;;;;;;;;;29.80;72.10;;;;;;5048396;28;19936;-62
2022/08/11 10:34:10;;;;;;;;;;;29.40;70.30;;;;;;5030658;28;19939;-66
2022/08/11 10:36:47;;;;;;;;;;;29.70;71.60;;;;;;5052041;28;19928;-66
2022/08/11 10:39:21;;;;;;;;;;;29.60;70.60;;;;;;5040014;28;19925;-62
2022/08/11 10:44:41;;;;;;;;;;;29.60;71.40;;;;;;5035926;28;19924;-62
2022/08/11 10:51:12;;;;;;;;;;;29.70;71.90;;;;;;5047655;28;20306;-62
2022/08/11 11:00:51;;;;;;;;;;;29.10;72.80;;;;;;5054309;28;20326;-62
2022/08/11 11:03:17;;;;;;;;;;;29.70;73.20;;;;;;5036848;28;19925;-62
2022/08/11 11:05:42;;;;;;;;;;;29.80;73.80;;;;;;5016442;28;19925;-62
2022/08/11 11:10:59;;;;;;;;;;;29.40;72.20;;;;;;5029337;28;19979;-70
2022/08/11 11:18:54;;;;;;;;;;;29.60;73.10;;;;;;5068397;28;19928;-64
2022/08/11 11:21:20;;;;;;;;;;;29.60;73.50;;;;;;5053445;28;20020;-62
2022/08/11 11:23:48;;;;;;;;;;;29.70;73.40;;;;;;5049550;28;19932;-62
2022/08/11 11:26:20;;;;;;;;;;;29.10;72.00;;;;;;5051422;28;20389;-63
2022/08/11 11:28:49;;;;;;;;;;;29.40;71.80;;;;;;5049099;28;19925;-63
2022/08/11 11:31:33;;;;;;;;;;;29.70;72.20;;;;;;5053300;28;20289;-62
2022/08/11 11:34:11;;;;;;;;;;;29.30;71.90;;;;;;5053506;28;20386;-62
2022/08/11 11:36:47;;;;;;;;;;;29.30;71.90;;;;;;5035420;28;19928;-62
2022/08/11 11:39:15;;;;;;;;;;;29.50;72.10;;;;;;5052802;28;19931;-63
2022/08/11 11:41:41;;;;;;;;;;;29.30;73.00;;;;;;5051288;28;20402;-62
2022/08/11 11:44:06;;;;;;;;;;;29.40;73.20;;;;;;5053037;28;19951;-62
2022/08/11 11:46:32;;;;;;;;;;;29.40;73.40;;;;;;5067208;28;19932;-62
2022/08/11 11:48:59;;;;;;;;;;;29.40;72.60;;;;;;5069445;28;19968;-62
2022/08/11 11:51:24;;;;;;;;;;;29.20;73.00;;;;;;5073278;28;19936;-62
2022/08/11 11:53:50;;;;;;;;;;;29.50;73.10;;;;;;5064224;28;19929;-62
2022/08/11 11:56:16;;;;;;;;;;;29.20;72.90;;;;;;5052653;28;20386;-63
2022/08/11 12:01:26;;;;;;;;;;;29.20;72.00;;;;;;5035654;28;20351;-62
2022/08/11 12:03:52;;;;;;;;;;;29.40;72.90;;;;;;5032123;28;19971;-63
2022/08/11 12:06:18;;;;;;;;;;;29.40;73.00;;;;;;5036083;28;19925;-62
2022/08/11 12:08:44;;;;;;;;;;;29.40;73.20;;;;;;5064417;28;19950;-62
2022/08/11 12:13:56;;;;;;;;;;;29.40;73.30;;;;;;5046421;28;19932;-62
2022/08/11 12:16:22;;;;;;;;;;;29.40;73.20;;;;;;5050449;28;20062;-62
2022/08/11 12:18:52;;;;;;;;;;;29.40;72.90;;;;;;5053968;28;20370;-63
2022/08/11 12:21:17;;;;;;;;;;;29.40;71.90;;;;;;5053424;28;19932;-62
2022/08/11 12:29:12;;;;;;;;;;;29.30;72.40;;;;;;5038654;28;19947;-62
2022/08/11 12:31:38;;;;;;;;;;;29.30;73.00;;;;;;5053247;28;19925;-62
2022/08/11 12:34:08;;;;;;;;;;;29.60;73.50;;;;;;5051842;28;19924;-62
2022/08/11 12:36:40;;;;;;;;;;;29.40;71.80;;;;;;5051416;28;20015;-63
2022/08/11 12:39:09;;;;;;;;;;;29.50;71.70;;;;;;5052126;28;19925;-62
2022/08/11 12:47:03;;;;;;;;;;;29.30;71.90;;;;;;5073070;28;19947;-62
2022/08/11 12:52:17;;;;;;;;;;;29.80;73.30;;;;;;5056252;28;20438;-62
2022/08/11 12:55:09;;;;;;;;;;;29.50;73.10;;;;;;5038771;28;19962;-63
2022/08/11 13:05:50;;;;;;;;;;;29.50;73.20;;;;;;5056236;28;19924;-62
2022/08/11 13:08:16;;;;;;;;;;;29.60;73.20;;;;;;5067753;28;20037;-62
2022/08/11 13:13:26;;;;;;;;;;;29.60;73.20;;;;;;5073976;28;19993;-66
2022/08/11 13:15:52;;;;;;;;;;;29.40;72.60;;;;;;5071489;28;20390;-63
2022/08/11 13:18:21;;;;;;;;;;;29.60;72.90;;;;;;5007800;28;19925;-65
2022/08/11 13:20:48;;;;;;;;;;;29.60;73.60;;;;;;5031589;28;19932;-62
2022/08/11 13:23:14;;;;;;;;;;;29.40;73.40;;;;;;5035085;28;20267;-62
2022/08/11 13:25:39;;;;;;;;;;;29.70;73.40;;;;;;5042427;28;19925;-62
2022/08/11 13:28:06;;;;;;;;;;;29.60;73.40;;;;;;5041495;28;20012;-62
2022/08/11 13:33:17;;;;;;;;;;;29.50;73.30;;;;;;4987122;28;19956;-62
2022/08/11 13:35:48;;;;;;;;;;;29.30;73.00;;;;;;4994361;28;20016;-62
2022/08/11 13:38:14;;;;;;;;;;;29.50;73.50;;;;;;4977835;28;19932;-62
2022/08/11 13:40:39;;;;;;;;;;;29.40;73.20;;;;;;4977994;28;19926;-62
2022/08/11 13:43:05;;;;;;;;;;;29.40;73.10;;;;;;4976332;28;19981;-62
2022/08/11 13:45:31;;;;;;;;;;;29.70;73.20;;;;;;4978106;28;19930;-62
2022/08/11 13:47:58;;;;;;;;;;;29.60;73.30;;;;;;4993485;28;19936;-62
2022/08/11 13:51:29;;;;;;;;;;;29.40;72.30;;;;;;4993477;28;19926;-62
2022/08/11 13:53:11;;;;;;;;;;;29.60;73.40;;;;;;4992816;28;20307;-62
2022/08/11 13:55:38;;;;;;;;;;;29.50;72.90;;;;;;4993970;28;19932;-63
2022/08/11 13:58:03;;;;;;;;;;;29.60;73.50;;;;;;4977865;28;19930;-61
2022/08/11 14:00:30;;;;;;;;;;;29.40;73.00;;;;;;4992472;28;19926;-61
2022/08/11 14:02:56;;;;;;;;;;;29.50;73.30;;;;;;4991549;28;20346;-62
2022/08/11 14:05:27;;;;;;;;;;;29.60;73.20;;;;;;4993788;28;19925;-66
2022/08/11 14:08:00;;;;;;;;;;;29.70;73.50;;;;;;4993716;28;20008;-62
2022/08/11 14:10:27;;;;;;;;;;;29.60;71.90;;;;;;5025297;28;19925;-62
2022/08/11 14:15:40;;;;;;;;;;;29.50;73.40;;;;;;5054329;28;19924;-62
2022/08/11 14:18:07;;;;;;;;;;;29.80;73.50;;;;;;5054028;28;19970;-62
2022/08/11 14:23:23;;;;;;;;;;;29.40;73.40;;;;;;5033879;28;20319;-61
2022/08/11 14:28:33;;;;;;;;;;;29.50;72.20;;;;;;5034658;28;19933;-67
2022/08/11 14:30:59;;;;;;;;;;;29.70;73.30;;;;;;5054939;28;19924;-63
2022/08/11 14:33:25;;;;;;;;;;;29.70;73.20;;;;;;5065341;28;20393;-65
2022/08/11 14:35:51;;;;;;;;;;;29.50;73.00;;;;;;5053765;28;20007;-62
2022/08/11 14:38:16;;;;;;;;;;;29.60;72.90;;;;;;5054467;28;19932;-62
2022/08/11 14:48:54;;;;;;;;;;;29.20;72.10;;;;;;5036204;28;20290;-64
2022/08/11 14:51:20;;;;;;;;;;;29.60;73.30;;;;;;5054368;28;19951;-65
2022/08/11 14:53:46;;;;;;;;;;;29.50;73.40;;;;;;5056750;28;19975;-62
2022/08/11 14:58:56;;;;;;;;;;;29.50;72.40;;;;;;5054055;28;19948;-64
2022/08/11 15:04:05;;;;;;;;;;;29.20;72.20;;;;;;5033911;28;20426;-65
2022/08/11 15:06:32;;;;;;;;;;;29.10;73.20;;;;;;5036121;28;19925;-65
2022/08/11 15:08:57;;;;;;;;;;;29.50;73.50;;;;;;5054204;28;20337;-66
2022/08/11 15:14:11;;;;;;;;;;;29.30;73.50;;;;;;5049889;28;19929;-65
2022/08/11 15:19:23;;;;;;;;;;;29.50;73.60;;;;;;5053443;28;20382;-62
2022/08/11 15:24:35;;;;;;;;;;;29.30;72.60;;;;;;5033555;28;19971;-63
2022/08/11 15:37:59;;;;;;;;;;;29.30;73.10;;;;;;5050855;28;20345;-65
2022/08/11 15:46:00;;;;;;;;;;;29.10;72.80;;;;;;5052392;28;20390;-62
2022/08/11 15:48:32;;;;;;;;;;;29.30;74.10;;;;;;5053266;28;20012;-62
2022/08/11 15:51:08;;;;;;;;;;;29.20;72.60;;;;;;5053839;28;19924;-62
2022/08/11 15:53:37;;;;;;;;;;;29.50;72.80;;;;;;5051847;28;20290;-63
2022/08/11 15:56:02;;;;;;;;;;;29.40;74.10;;;;;;5034790;28;19967;-64
2022/08/11 16:04:11;;;;;;;;;;;29.10;73.80;;;;;;5049669;28;20019;-64
2022/08/11 16:06:55;;;;;;;;;;;29.10;74.50;;;;;;5051301;28;19925;-62
2022/08/11 16:09:22;;;;;;;;;;;29.20;73.20;;;;;;5052087;28;20066;-63
2022/08/11 16:11:48;;;;;;;;;;;29.20;74.60;;;;;;5035340;28;19932;-64
2022/08/11 16:16:58;;;;;;;;;;;29.20;75.20;;;;;;5050688;28;19925;-70
2022/08/11 16:19:25;;;;;;;;;;;29.10;75.00;;;;;;5067097;28;19947;-71
2022/08/11 16:21:51;;;;;;;;;;;29.40;75.40;;;;;;5056030;28;20007;-62
2022/08/11 16:24:18;;;;;;;;;;;29.20;74.80;;;;;;5053378;28;20412;-65
2022/08/11 16:26:43;;;;;;;;;;;29.10;75.20;;;;;;5054523;28;19925;-70
2022/08/11 16:29:09;;;;;;;;;;;29.20;74.90;;;;;;5039912;28;20027;-71
2022/08/11 16:31:35;;;;;;;;;;;29.00;73.90;;;;;;5055274;28;19983;-61
2022/08/11 16:34:01;;;;;;;;;;;29.00;74.00;;;;;;5055567;28;20348;-63
2022/08/11 16:39:11;;;;;;;;;;;29.20;71.70;;;;;;5057567;28;19936;-63
2022/08/11 16:47:05;;;;;;;;;;;29.20;73.20;;;;;;5056188;28;19947;-70
2022/08/11 16:49:32;;;;;;;;;;;29.30;73.60;;;;;;5056368;28;20371;-63
2022/08/11 16:52:02;;;;;;;;;;;29.10;73.30;;;;;;5035889;28;20385;-69
2022/08/11 16:54:31;;;;;;;;;;;29.10;73.70;;;;;;5056283;28;19972;-70
2022/08/11 16:59:12;;;;;;;;;;;29.00;73.60;;;;;;5037273;28;19931;-70
2022/08/11 16:59:43;;;;;;;;;;;29.10;74.30;;;;;;5055900;28;19932;-62
2022/08/11 17:02:12;;;;;;;;;;;29.00;73.60;;;;;;5053745;28;20362;-62
2022/08/11 17:13:11;;;;;;;;;;;29.20;74.10;;;;;;5055703;28;20290;-62
2022/08/11 17:18:39;;;;;;;;;;;29.10;74.20;;;;;;5055726;28;19964;-62
2022/08/11 17:21:05;;;;;;;;;;;28.90;72.80;;;;;;5055854;28;19978;-62
2022/08/11 17:23:46;;;;;;;;;;;28.90;73.50;;;;;;5053919;28;19924;-62
2022/08/11 17:26:19;;;;;;;;;;;29.00;72.60;;;;;;5054951;28;19924;-69
2022/08/11 17:28:45;;;;;;;;;;;29.20;73.00;;;;;;5056056;28;20332;-62
2022/08/11 17:36:41;;;;;;;;;;;28.80;72.80;;;;;;5053541;28;19925;-69
2022/08/11 17:39:07;;;;;;;;;;;28.90;73.70;;;;;;5045149;28;20383;-69
2022/08/11 17:49:46;;;;;;;;;;;29.00;73.50;;;;;;5054506;28;19932;-66
2022/08/11 18:00:24;;;;;;;;;;;28.90;73.60;;;;;;5054120;28;20302;-65
2022/08/11 18:05:35;;;;;;;;;;;28.90;73.90;;;;;;5053409;28;20023;-69
